FDMS/MTS METAR and TAF weather

Enter ICAO airport designator
Station Type Date Time Source
FDMS METAR 2020/09/17 08:00 UTC NOAA

FDMS 170800Z VRB02KT 9999 BKN030 18/11 Q1024 NOSIG


Station Type Date Time Source
FDMS Decoded METAR 2020/09/17 08:00 UTC NOAA

Manzini / Matsapa Airport, Swaziland (FDMS) 26-32S 031-18E
Sep 17, 2020 - 04:00 AM EDT / 2020.09.17 0800 UTC
Wind: Variable at 2 MPH (2 KT):0
Visibility: greater than 7 mile(s):0
Sky conditions: mostly cloudy
Temperature: 64 F (18 C)
Dew Point: 51 F (11 C)
Relative Humidity: 63%
Pressure (altimeter): 30.24 in. Hg (1024 hPa)
ob: FDMS 170800Z VRB02KT 9999 BKN030 18/11 Q1024 NOSIG
cycle: 8

Station Type Date Time Source
FDMS TAF 2020/03/05 06:00 UTC NOAA

TAF TAF FDMS 050400Z 0506/0518 06007KT CAVOK

Example: see airport list